Time;durP1;ratioP1;P1;durP2;ratioP2;P2;SDS_P1;SDS_P2;PMS_P1;PMS_P2;Temp;Humidity;BMP_temperature;BMP_pressure;BME280_temperature;BME280_humidity;BME280_pressure;Samples;Min_cycle;Max_cycle;Signal;HPM_P1;HPM_P2
2021/12/20 00:00:42;;;;;;;54.33;24.27;;;2.90;99.90;;;;;;5041766;28;20029;-85
2021/12/20 00:03:08;;;;;;;54.13;25.05;;;2.90;99.90;;;;;;5041138;28;20217;-84
2021/12/20 00:05:33;;;;;;;53.38;24.00;;;2.90;99.90;;;;;;5042590;28;20088;-85
2021/12/20 00:07:59;;;;;;;53.88;24.00;;;2.90;99.90;;;;;;5043326;28;20018;-85
2021/12/20 00:10:25;;;;;;;47.22;21.40;;;2.80;99.90;;;;;;5043181;28;20025;-85
2021/12/20 00:12:51;;;;;;;47.72;22.05;;;2.90;99.90;;;;;;5042975;28;20021;-85
2021/12/20 00:15:17;;;;;;;46.05;22.05;;;2.90;99.90;;;;;;5042796;28;20029;-85
2021/12/20 00:17:44;;;;;;;52.55;22.67;;;2.90;99.90;;;;;;5043419;28;20030;-84
2021/12/20 00:20:10;;;;;;;51.13;23.00;;;2.90;99.90;;;;;;5043353;28;20252;-85
2021/12/20 00:22:36;;;;;;;52.95;22.92;;;2.80;99.90;;;;;;5043531;28;20014;-85
2021/12/20 00:25:04;;;;;;;48.67;21.63;;;2.80;99.90;;;;;;5043515;28;20093;-85
2021/12/20 00:27:30;;;;;;;51.75;23.17;;;2.80;99.90;;;;;;5025899;28;20307;-85
2021/12/20 00:29:56;;;;;;;46.28;21.73;;;2.90;99.90;;;;;;5025595;28;20237;-85
2021/12/20 00:32:22;;;;;;;53.28;22.50;;;2.90;99.90;;;;;;5043295;28;20093;-85
2021/12/20 00:34:48;;;;;;;49.53;22.60;;;2.90;99.90;;;;;;5025264;28;20033;-85
2021/12/20 00:42:44;;;;;;;45.15;19.95;;;2.90;99.90;;;;;;5043247;28;19908;-85
2021/12/20 00:45:10;;;;;;;45.60;20.00;;;2.90;99.90;;;;;;5042993;28;20053;-85
2021/12/20 00:47:37;;;;;;;46.85;20.35;;;2.90;99.90;;;;;;5025319;28;20029;-85
2021/12/20 00:50:04;;;;;;;44.85;20.35;;;2.90;99.90;;;;;;5042760;28;20014;-84
2021/12/20 00:52:30;;;;;;;45.40;20.58;;;2.80;99.90;;;;;;5042841;28;20056;-85
2021/12/20 00:54:56;;;;;;;44.80;19.50;;;2.80;99.90;;;;;;5042765;28;20040;-85
2021/12/20 00:57:22;;;;;;;43.90;20.00;;;2.80;99.90;;;;;;5042444;28;20040;-85
2021/12/20 00:59:47;;;;;;;42.15;20.58;;;2.80;99.90;;;;;;5042650;28;20206;-83
2021/12/20 01:02:13;;;;;;;49.30;22.33;;;2.80;99.90;;;;;;5041865;28;20037;-83
2021/12/20 01:04:39;;;;;;;42.50;21.20;;;2.80;99.90;;;;;;5041347;28;20052;-83
2021/12/20 01:07:05;;;;;;;45.60;21.95;;;2.90;99.90;;;;;;5041329;28;20029;-83
2021/12/20 01:09:31;;;;;;;46.05;21.10;;;2.90;99.90;;;;;;5042509;28;20077;-83
2021/12/20 01:12:02;;;;;;;45.97;21.05;;;2.80;99.90;;;;;;5041823;28;20225;-86
2021/12/20 01:14:31;;;;;;;43.60;21.08;;;2.90;99.90;;;;;;5024460;28;20325;-86
2021/12/20 01:17:03;;;;;;;48.47;21.00;;;2.90;99.90;;;;;;5042064;28;20288;-86
2021/12/20 01:19:29;;;;;;;45.13;21.20;;;2.90;99.90;;;;;;5023948;28;20024;-86
2021/12/20 01:21:54;;;;;;;45.58;20.33;;;2.90;99.90;;;;;;5042399;28;20282;-86
2021/12/20 01:24:21;;;;;;;43.72;19.80;;;2.90;99.90;;;;;;5040299;28;20033;-86
2021/12/20 01:26:47;;;;;;;43.92;19.98;;;3.00;99.90;;;;;;5039530;28;20270;-85
2021/12/20 01:29:12;;;;;;;40.78;19.88;;;3.10;99.90;;;;;;5040583;28;20025;-83
2021/12/20 01:31:38;;;;;;;45.85;21.33;;;3.10;99.90;;;;;;5040242;28;20021;-86
2021/12/20 01:34:04;;;;;;;47.13;21.67;;;3.00;99.90;;;;;;5022812;28;20157;-86
2021/12/20 01:36:29;;;;;;;46.45;21.13;;;3.10;99.90;;;;;;5021197;28;20345;-83
2021/12/20 01:38:55;;;;;;;47.13;20.83;;;3.10;99.90;;;;;;5023779;28;20025;-83
2021/12/20 01:41:21;;;;;;;43.90;19.58;;;3.10;99.90;;;;;;5041015;28;20029;-83
2021/12/20 01:43:46;;;;;;;44.70;20.05;;;3.20;99.90;;;;;;5023903;28;20079;-83
2021/12/20 01:46:12;;;;;;;42.47;19.77;;;3.10;99.90;;;;;;5024300;28;20313;-84
2021/12/20 01:48:40;;;;;;;41.88;19.88;;;3.20;99.90;;;;;;5041272;28;20028;-83
2021/12/20 01:53:31;;;;;;;41.42;19.02;;;3.10;99.90;;;;;;5041609;28;20037;-83
2021/12/20 01:55:57;;;;;;;37.90;19.15;;;3.10;99.90;;;;;;5041282;28;20020;-84
2021/12/20 01:58:24;;;;;;;42.30;20.00;;;3.10;99.90;;;;;;5041268;28;20052;-83
2021/12/20 02:03:45;;;;;;;39.58;18.10;;;3.20;99.90;;;;;;5041232;28;20022;-83
2021/12/20 02:06:30;;;;;;;37.75;17.77;;;3.10;99.90;;;;;;5041000;28;20409;-83
2021/12/20 02:08:58;;;;;;;43.40;20.17;;;3.10;99.90;;;;;;5041530;28;20045;-83
2021/12/20 02:11:23;;;;;;;39.90;18.65;;;3.10;99.90;;;;;;5023490;28;20049;-83
2021/12/20 02:13:50;;;;;;;45.50;20.60;;;3.10;99.90;;;;;;5041154;28;20032;-83
2021/12/20 02:16:17;;;;;;;37.72;19.05;;;3.10;99.90;;;;;;5040545;28;20039;-83
2021/12/20 02:18:42;;;;;;;40.08;18.48;;;3.10;99.90;;;;;;5041305;28;20020;-85
2021/12/20 02:21:08;;;;;;;40.58;18.98;;;3.10;99.90;;;;;;5040725;28;20026;-83
2021/12/20 02:23:34;;;;;;;45.13;19.33;;;3.00;99.90;;;;;;5040758;28;20045;-83
2021/12/20 02:26:00;;;;;;;41.60;18.80;;;3.00;99.90;;;;;;5040495;28;20025;-83
2021/12/20 02:28:29;;;;;;;41.35;18.95;;;3.00;99.90;;;;;;5040916;28;20022;-83
2021/12/20 02:39:21;;;;;;;40.65;17.73;;;3.10;99.90;;;;;;5040857;28;20028;-83
2021/12/20 02:41:46;;;;;;;40.00;17.85;;;3.10;99.90;;;;;;5040847;28;20025;-83
2021/12/20 02:44:20;;;;;;;40.30;18.75;;;3.10;99.90;;;;;;5040958;28;20029;-83
2021/12/20 02:47:03;;;;;;;37.20;18.00;;;3.20;99.90;;;;;;5040892;28;20018;-85
2021/12/20 02:49:29;;;;;;;35.60;16.60;;;3.20;99.90;;;;;;5040090;28;20029;-85
2021/12/20 02:52:00;;;;;;;34.58;16.98;;;3.20;99.90;;;;;;5041210;28;20083;-83
2021/12/20 02:54:26;;;;;;;35.78;17.30;;;3.20;99.90;;;;;;5040695;28;20030;-83
2021/12/20 02:56:52;;;;;;;38.55;17.67;;;3.20;99.90;;;;;;5040546;28;20018;-83
2021/12/20 02:59:18;;;;;;;40.38;17.85;;;3.20;99.90;;;;;;5040076;28;20294;-83
2021/12/20 03:01:48;;;;;;;38.40;16.63;;;3.30;99.90;;;;;;5042197;28;20033;-83
2021/12/20 03:04:17;;;;;;;36.90;17.77;;;3.20;99.90;;;;;;5044016;28;20089;-85
2021/12/20 03:06:46;;;;;;;35.47;16.40;;;3.20;99.90;;;;;;5045311;28;20083;-86
2021/12/20 03:09:17;;;;;;;36.25;16.65;;;3.20;99.90;;;;;;5044403;28;20320;-83
2021/12/20 03:11:44;;;;;;;33.08;15.38;;;3.10;99.90;;;;;;5026698;28;20039;-83
2021/12/20 03:14:17;;;;;;;32.70;15.43;;;3.20;99.90;;;;;;5026845;28;20321;-83
2021/12/20 03:16:44;;;;;;;32.38;15.65;;;3.10;99.90;;;;;;5044889;28;20021;-84
2021/12/20 03:19:09;;;;;;;36.67;17.90;;;3.10;99.90;;;;;;5026685;28;20049;-85
2021/12/20 03:21:35;;;;;;;36.08;16.50;;;3.30;99.90;;;;;;5044195;28;20021;-86
2021/12/20 03:24:01;;;;;;;32.65;16.20;;;3.30;99.90;;;;;;5043948;28;20036;-85
2021/12/20 03:26:27;;;;;;;30.63;14.65;;;3.30;99.90;;;;;;5026402;28;20217;-85
2021/12/20 03:28:53;;;;;;;32.08;15.20;;;3.20;99.90;;;;;;5044677;28;20329;-86
2021/12/20 03:31:19;;;;;;;30.45;14.90;;;3.20;99.90;;;;;;5044086;28;20041;-83
2021/12/20 03:33:45;;;;;;;31.20;14.07;;;3.20;99.90;;;;;;5043585;28;20029;-83
2021/12/20 03:36:10;;;;;;;30.27;15.02;;;3.20;99.90;;;;;;5043785;28;20013;-83
2021/12/20 03:38:36;;;;;;;31.73;14.32;;;3.20;99.90;;;;;;5044505;28;20021;-83
2021/12/20 03:41:02;;;;;;;28.52;13.63;;;3.20;99.90;;;;;;5043494;28;20099;-83
2021/12/20 03:43:31;;;;;;;31.33;13.88;;;3.20;99.90;;;;;;5026142;28;20034;-83
2021/12/20 03:46:04;;;;;;;27.70;13.73;;;3.20;99.90;;;;;;5044084;28;20017;-83
2021/12/20 03:48:30;;;;;;;29.23;13.63;;;3.20;99.90;;;;;;5043919;28;20026;-86
2021/12/20 03:51:01;;;;;;;27.58;13.38;;;3.20;99.90;;;;;;5043836;28;20029;-86
2021/12/20 03:53:27;;;;;;;27.20;12.13;;;3.10;99.90;;;;;;5043568;28;20040;-83
2021/12/20 03:55:53;;;;;;;27.05;12.32;;;3.10;99.90;;;;;;5026114;28;20045;-83
2021/12/20 03:58:19;;;;;;;23.58;11.77;;;3.10;99.90;;;;;;5043404;28;20022;-83
2021/12/20 04:00:46;;;;;;;28.55;12.38;;;3.10;99.90;;;;;;5026042;28;20093;-83
2021/12/20 04:03:14;;;;;;;24.92;11.73;;;3.10;99.90;;;;;;5044041;28;20071;-83
2021/12/20 04:05:40;;;;;;;26.25;12.25;;;3.10;99.90;;;;;;5025217;28;20054;-83
2021/12/20 04:08:06;;;;;;;28.60;12.50;;;3.20;99.90;;;;;;5043410;28;20305;-83
2021/12/20 04:10:33;;;;;;;26.52;12.15;;;3.20;99.90;;;;;;5043038;28;20029;-83
2021/12/20 04:12:59;;;;;;;24.00;12.27;;;3.20;99.90;;;;;;5042345;28;20037;-83
2021/12/20 04:15:24;;;;;;;28.73;12.90;;;3.20;99.90;;;;;;5042915;28;20389;-85
2021/12/20 04:17:50;;;;;;;25.23;11.88;;;3.20;99.90;;;;;;5042868;28;20013;-85
2021/12/20 04:20:16;;;;;;;29.38;12.82;;;3.20;99.90;;;;;;5043414;28;20080;-86
2021/12/20 04:22:42;;;;;;;25.90;12.68;;;3.20;99.90;;;;;;5043550;28;20040;-86
2021/12/20 04:25:08;;;;;;;24.60;12.00;;;3.20;99.90;;;;;;5043164;28;20027;-83
2021/12/20 04:27:35;;;;;;;24.52;12.18;;;3.20;99.90;;;;;;5042563;28;20221;-83
2021/12/20 04:30:08;;;;;;;24.70;11.73;;;3.30;99.90;;;;;;5043257;28;20021;-83
2021/12/20 04:32:34;;;;;;;27.25;12.68;;;3.30;99.90;;;;;;5025003;28;20032;-83
2021/12/20 04:35:00;;;;;;;23.95;11.50;;;3.30;99.90;;;;;;5042101;28;20093;-83
2021/12/20 04:37:25;;;;;;;21.80;10.57;;;3.30;99.90;;;;;;5042574;28;20021;-83
2021/12/20 04:39:51;;;;;;;22.95;11.55;;;3.30;99.90;;;;;;5043213;28;20018;-83
2021/12/20 04:42:18;;;;;;;22.42;11.77;;;3.30;99.90;;;;;;5041632;28;20035;-83
2021/12/20 04:44:44;;;;;;;23.52;11.80;;;3.20;99.90;;;;;;5042834;28;20401;-83
2021/12/20 04:47:09;;;;;;;20.83;11.25;;;3.30;99.90;;;;;;5042731;28;20243;-83
2021/12/20 04:49:35;;;;;;;21.00;10.57;;;3.30;99.90;;;;;;5042329;28;20017;-83
2021/12/20 04:52:01;;;;;;;19.80;10.43;;;3.30;99.90;;;;;;5041655;28;20142;-83
2021/12/20 04:54:27;;;;;;;20.63;10.52;;;3.30;99.90;;;;;;5041842;28;20033;-83
2021/12/20 04:56:52;;;;;;;20.25;10.30;;;3.30;99.90;;;;;;5042479;28;20022;-83
2021/12/20 04:59:18;;;;;;;19.13;10.50;;;3.30;99.90;;;;;;5042330;28;20030;-85
2021/12/20 05:01:44;;;;;;;22.92;11.00;;;3.30;99.90;;;;;;5042657;28;20244;-86
2021/12/20 05:04:09;;;;;;;20.50;10.27;;;3.20;99.90;;;;;;5042465;28;20021;-83
2021/12/20 05:06:35;;;;;;;20.45;10.05;;;3.30;99.90;;;;;;5042263;28;20338;-83
2021/12/20 05:09:04;;;;;;;20.08;10.80;;;3.30;99.90;;;;;;5042708;28;20080;-83
2021/12/20 05:11:31;;;;;;;20.55;10.63;;;3.30;99.90;;;;;;5040490;28;20402;-83
2021/12/20 05:13:56;;;;;;;15.32;9.20;;;3.40;99.90;;;;;;5023551;28;20341;-83
2021/12/20 05:16:22;;;;;;;15.07;8.73;;;3.40;99.90;;;;;;5040287;28;20116;-85
2021/12/20 05:18:48;;;;;;;18.67;10.13;;;3.40;99.90;;;;;;5040704;28;20025;-86
2021/12/20 05:21:14;;;;;;;14.38;8.55;;;3.30;99.90;;;;;;5022524;28;20036;-83
2021/12/20 05:23:40;;;;;;;19.13;10.35;;;3.20;99.90;;;;;;5040217;28;20018;-83
2021/12/20 05:26:06;;;;;;;17.75;9.30;;;3.30;99.90;;;;;;5041612;28;20075;-83
2021/12/20 05:28:31;;;;;;;18.23;9.82;;;3.20;99.90;;;;;;5041505;28;20072;-83
2021/12/20 05:30:57;;;;;;;16.27;9.07;;;3.20;99.90;;;;;;5041804;28;20040;-83
2021/12/20 05:33:23;;;;;;;19.98;9.77;;;3.30;99.90;;;;;;5041998;28;20064;-85
2021/12/20 05:35:50;;;;;;;17.55;8.77;;;3.40;99.90;;;;;;5041865;28;20033;-83
2021/12/20 05:38:16;;;;;;;16.60;9.10;;;3.40;99.90;;;;;;5040816;28;20313;-83
2021/12/20 05:40:42;;;;;;;17.60;9.32;;;3.40;99.90;;;;;;5041764;28;20021;-83
2021/12/20 05:43:08;;;;;;;15.85;8.73;;;3.30;99.90;;;;;;5041134;28;20020;-83
2021/12/20 05:45:34;;;;;;;18.88;9.98;;;3.30;99.90;;;;;;5041507;28;20025;-83
2021/12/20 05:48:00;;;;;;;16.52;9.65;;;3.20;99.90;;;;;;5041105;28;20072;-83
2021/12/20 05:50:26;;;;;;;17.10;9.32;;;3.20;99.90;;;;;;5041374;28;20034;-83
2021/12/20 05:52:52;;;;;;;17.27;10.25;;;3.20;99.90;;;;;;5040646;28;20038;-83
2021/12/20 05:55:18;;;;;;;18.17;10.00;;;3.30;99.90;;;;;;5023620;28;20045;-83
2021/12/20 05:57:45;;;;;;;17.88;9.82;;;3.30;99.90;;;;;;5041175;28;20049;-83
2021/12/20 06:00:14;;;;;;;17.25;10.50;;;3.20;99.90;;;;;;5040890;28;20041;-83
2021/12/20 06:02:45;;;;;;;17.00;8.57;;;3.20;99.90;;;;;;5023147;28;20029;-83
2021/12/20 06:05:11;;;;;;;15.98;9.48;;;3.20;99.90;;;;;;5040930;28;20237;-83
2021/12/20 06:07:40;;;;;;;18.38;10.45;;;3.20;99.90;;;;;;5040935;28;20313;-83
2021/12/20 06:10:10;;;;;;;15.52;9.32;;;3.30;99.90;;;;;;5041123;28;20021;-83
2021/12/20 06:12:36;;;;;;;17.27;10.05;;;3.30;99.90;;;;;;5041162;28;20017;-83
2021/12/20 06:15:06;;;;;;;16.50;9.40;;;3.30;99.90;;;;;;5022630;28;20101;-83
2021/12/20 06:17:31;;;;;;;19.02;10.15;;;3.30;99.90;;;;;;5040891;28;20018;-83
2021/12/20 06:19:57;;;;;;;17.38;9.88;;;3.30;99.90;;;;;;5029028;28;20124;-87
2021/12/20 06:22:23;;;;;;;16.58;9.98;;;3.30;99.90;;;;;;5010544;28;20045;-84
2021/12/20 06:24:48;;;;;;;14.73;9.38;;;3.40;99.90;;;;;;5009906;28;20490;-86
2021/12/20 06:27:14;;;;;;;16.10;9.48;;;3.30;99.90;;;;;;4992674;28;20639;-86
2021/12/20 06:29:40;;;;;;;16.27;9.57;;;3.40;99.90;;;;;;5009914;28;20026;-84
2021/12/20 06:32:06;;;;;;;17.63;9.23;;;3.50;99.90;;;;;;5009585;28;20084;-84
2021/12/20 06:34:31;;;;;;;17.15;9.70;;;3.30;99.90;;;;;;5009579;28;20085;-84
2021/12/20 06:36:57;;;;;;;15.68;9.93;;;3.30;99.90;;;;;;5011544;28;20445;-84
2021/12/20 06:39:23;;;;;;;16.90;10.57;;;3.30;99.90;;;;;;5014060;28;20026;-84
2021/12/20 06:41:50;;;;;;;17.33;10.05;;;3.20;99.90;;;;;;5013378;28;20028;-84
2021/12/20 06:44:17;;;;;;;17.00;9.80;;;3.30;99.90;;;;;;5030723;28;20524;-84
2021/12/20 06:46:43;;;;;;;16.17;9.93;;;3.30;99.90;;;;;;5015605;28;20017;-83
2021/12/20 06:49:09;;;;;;;16.02;9.27;;;3.30;99.90;;;;;;5034402;28;20032;-83
2021/12/20 06:51:46;;;;;;;18.52;10.05;;;3.30;99.90;;;;;;5035496;28;20021;-83
2021/12/20 06:54:14;;;;;;;16.25;9.82;;;3.30;99.90;;;;;;5034535;28;20614;-83
2021/12/20 06:56:39;;;;;;;15.52;8.95;;;3.30;99.90;;;;;;5035830;28;20449;-83
2021/12/20 06:59:05;;;;;;;17.88;9.52;;;3.20;99.90;;;;;;5035249;28;20048;-83
2021/12/20 07:01:31;;;;;;;18.02;9.88;;;3.30;99.90;;;;;;5019868;28;20084;-84
2021/12/20 07:03:57;;;;;;;14.45;8.73;;;3.30;99.90;;;;;;5035327;28;20029;-84
2021/12/20 07:06:23;;;;;;;18.27;9.50;;;3.30;99.90;;;;;;5038422;28;20654;-84
2021/12/20 07:08:49;;;;;;;18.48;9.25;;;3.40;99.90;;;;;;5034381;28;20026;-84
2021/12/20 07:11:15;;;;;;;16.40;9.27;;;3.40;99.90;;;;;;5035165;28;20079;-83
2021/12/20 07:13:41;;;;;;;14.88;8.75;;;3.40;99.90;;;;;;5033727;28;20034;-84
2021/12/20 07:16:07;;;;;;;15.57;9.20;;;3.40;99.90;;;;;;5033558;28;20466;-83
2021/12/20 07:18:34;;;;;;;15.25;9.05;;;3.50;99.90;;;;;;5035771;28;20029;-84
2021/12/20 07:21:00;;;;;;;16.50;9.57;;;3.50;99.90;;;;;;5036505;28;20022;-84
2021/12/20 07:23:26;;;;;;;17.17;10.02;;;3.60;99.90;;;;;;5033423;28;20100;-83
2021/12/20 07:25:52;;;;;;;20.60;9.73;;;3.70;99.90;;;;;;5016684;28;20341;-84
2021/12/20 07:28:18;;;;;;;14.85;8.63;;;3.60;99.90;;;;;;5022162;28;20034;-85
2021/12/20 07:30:47;;;;;;;13.75;8.07;;;3.60;99.90;;;;;;5008536;28;20033;-85
2021/12/20 07:33:15;;;;;;;14.20;8.38;;;3.50;99.90;;;;;;5010218;28;20030;-86
2021/12/20 07:35:44;;;;;;;14.05;8.90;;;3.40;99.90;;;;;;5026668;28;20033;-85
2021/12/20 07:38:13;;;;;;;13.07;8.38;;;3.30;99.90;;;;;;4990564;28;20022;-85
2021/12/20 07:40:45;;;;;;;16.35;9.35;;;3.20;99.90;;;;;;4994881;28;20195;-85
2021/12/20 07:43:14;;;;;;;15.18;8.73;;;3.20;99.90;;;;;;5012613;28;20037;-88
2021/12/20 07:45:40;;;;;;;17.60;9.55;;;3.10;99.90;;;;;;4994851;28;20437;-86
2021/12/20 07:48:06;;;;;;;15.23;9.55;;;3.10;99.90;;;;;;5011727;28;20398;-86
2021/12/20 07:50:32;;;;;;;14.50;8.18;;;3.10;99.90;;;;;;4994740;28;20033;-86
2021/12/20 07:52:58;;;;;;;13.50;9.27;;;3.10;99.90;;;;;;5012572;28;20029;-84
2021/12/20 07:55:24;;;;;;;14.38;8.45;;;3.00;99.90;;;;;;5012282;28;20030;-87
2021/12/20 07:57:51;;;;;;;14.05;9.13;;;3.10;99.90;;;;;;5013027;28;20061;-84
2021/12/20 08:00:17;;;;;;;32.55;11.70;;;3.10;99.90;;;;;;5012159;28;20042;-86
2021/12/20 08:02:43;;;;;;;17.98;9.40;;;3.10;99.90;;;;;;5012310;28;20032;-89
2021/12/20 08:05:10;;;;;;;16.65;8.80;;;3.00;99.90;;;;;;4994490;28;20053;-88
2021/12/20 08:07:36;;;;;;;15.68;9.82;;;3.00;99.90;;;;;;4994307;28;20029;-89
2021/12/20 08:10:02;;;;;;;14.57;8.52;;;3.00;99.90;;;;;;5012211;28;20079;-89
2021/12/20 08:12:28;;;;;;;14.10;8.60;;;3.00;99.90;;;;;;5015228;28;20022;-89
2021/12/20 08:14:53;;;;;;;16.67;9.43;;;2.90;99.90;;;;;;5001487;28;20037;-89
2021/12/20 08:17:19;;;;;;;17.17;8.48;;;3.00;99.90;;;;;;5011888;28;20072;-89
2021/12/20 08:19:45;;;;;;;13.98;8.77;;;3.00;99.90;;;;;;5005988;28;20481;-89
2021/12/20 08:22:10;;;;;;;16.75;9.02;;;3.00;99.90;;;;;;5025524;28;20107;-89
2021/12/20 08:24:36;;;;;;;14.43;8.95;;;3.00;99.90;;;;;;5032417;28;20172;-87
2021/12/20 08:27:02;;;;;;;15.32;8.75;;;3.10;99.90;;;;;;5030656;28;20405;-87
2021/12/20 08:29:29;;;;;;;14.73;8.50;;;3.10;99.90;;;;;;5013844;28;20203;-88
2021/12/20 08:32:01;;;;;;;13.55;8.32;;;3.20;99.90;;;;;;5031643;28;20044;-88
2021/12/20 08:34:27;;;;;;;14.75;8.35;;;3.20;99.90;;;;;;5031883;28;20044;-88
2021/12/20 08:36:53;;;;;;;18.73;9.75;;;3.30;99.90;;;;;;5013550;28;20029;-89
2021/12/20 08:39:19;;;;;;;15.45;9.93;;;3.20;99.90;;;;;;5013563;28;20079;-89
2021/12/20 08:41:46;;;;;;;15.75;8.90;;;3.30;99.90;;;;;;5031694;28;20032;-88
2021/12/20 08:44:12;;;;;;;15.50;8.40;;;3.30;99.90;;;;;;5003110;28;20037;-89
2021/12/20 08:46:37;;;;;;;16.58;9.20;;;3.30;99.90;;;;;;5011338;28;20057;-88
2021/12/20 08:49:03;;;;;;;15.07;9.15;;;3.20;99.90;;;;;;5009796;28;20025;-89
2021/12/20 08:51:30;;;;;;;17.20;9.57;;;3.20;99.90;;;;;;5010202;28;20365;-88
2021/12/20 08:53:56;;;;;;;14.38;8.95;;;3.30;99.90;;;;;;5010037;28;20022;-89
2021/12/20 08:56:22;;;;;;;14.88;8.70;;;3.30;99.90;;;;;;4993972;28;20052;-89
2021/12/20 08:58:48;;;;;;;16.42;8.95;;;3.30;99.90;;;;;;4991072;28;20037;-88
2021/12/20 09:01:14;;;;;;;15.82;8.32;;;3.40;99.90;;;;;;5009695;28;20029;-89
2021/12/20 09:03:40;;;;;;;12.70;8.13;;;3.50;99.90;;;;;;4992812;28;20026;-88
2021/12/20 09:06:08;;;;;;;14.25;8.57;;;3.50;99.90;;;;;;5010878;28;20136;-88
2021/12/20 09:08:34;;;;;;;14.32;8.18;;;3.50;99.90;;;;;;5011121;28;20018;-88
2021/12/20 09:11:00;;;;;;;14.98;8.90;;;3.40;99.90;;;;;;5010838;28;20022;-88
2021/12/20 09:13:26;;;;;;;14.20;8.40;;;3.50;99.90;;;;;;5010908;28;20487;-88
2021/12/20 09:15:54;;;;;;;13.70;7.95;;;3.50;99.90;;;;;;5015246;28;20038;-88
2021/12/20 09:18:19;;;;;;;12.55;8.15;;;3.50;99.90;;;;;;5011393;28;20494;-89
2021/12/20 09:20:45;;;;;;;16.20;8.95;;;3.60;99.90;;;;;;5010620;28;20069;-88
2021/12/20 09:23:13;;;;;;;16.95;8.60;;;3.60;99.90;;;;;;4993167;28;20435;-88
2021/12/20 09:25:44;;;;;;;14.98;7.57;;;3.50;99.90;;;;;;5012426;28;20113;-88
2021/12/20 09:28:12;;;;;;;13.20;8.15;;;3.50;99.90;;;;;;5010860;28;20104;-88
2021/12/20 09:30:39;;;;;;;12.25;7.70;;;3.50;99.90;;;;;;4993549;28;20109;-89
2021/12/20 09:33:05;;;;;;;13.25;8.35;;;3.60;99.90;;;;;;5011028;28;20064;-89
2021/12/20 09:35:33;;;;;;;12.60;7.97;;;3.70;99.90;;;;;;5010555;28;20033;-89
2021/12/20 09:37:59;;;;;;;15.65;9.02;;;3.70;99.90;;;;;;4993970;28;20058;-90
2021/12/20 09:40:33;;;;;;;15.48;8.90;;;3.80;99.90;;;;;;5011501;28;20029;-88
2021/12/20 09:43:07;;;;;;;13.55;8.30;;;3.70;99.90;;;;;;5010595;28;20091;-89
2021/12/20 09:45:33;;;;;;;12.40;7.85;;;3.70;99.90;;;;;;5010238;28;20417;-89
2021/12/20 09:47:59;;;;;;;13.52;8.20;;;3.80;99.90;;;;;;4993138;28;20025;-89
2021/12/20 09:50:26;;;;;;;13.00;7.60;;;3.80;99.90;;;;;;5024270;28;20060;-88
2021/12/20 09:52:52;;;;;;;15.23;8.75;;;3.90;99.90;;;;;;4994159;28;20048;-89
2021/12/20 09:55:19;;;;;;;14.57;8.68;;;3.90;99.90;;;;;;4991810;28;20045;-89
2021/12/20 09:57:48;;;;;;;12.63;8.55;;;3.90;99.90;;;;;;5010224;28;20079;-89
2021/12/20 10:00:17;;;;;;;14.15;8.70;;;4.00;99.90;;;;;;4992571;28;20053;-90
2021/12/20 10:02:46;;;;;;;11.57;7.45;;;4.00;99.90;;;;;;4992495;28;20021;-89
2021/12/20 10:05:13;;;;;;;12.45;7.72;;;3.90;99.90;;;;;;5015704;28;20277;-86
2021/12/20 10:07:40;;;;;;;13.02;7.30;;;3.90;99.90;;;;;;5015624;28;20025;-86
2021/12/20 10:10:09;;;;;;;13.52;7.90;;;3.80;99.90;;;;;;5014233;28;20433;-88
2021/12/20 10:12:46;;;;;;;13.18;7.93;;;3.80;99.90;;;;;;5009670;28;20064;-87
2021/12/20 10:15:14;;;;;;;11.50;7.70;;;3.90;99.90;;;;;;5011039;28;20034;-88
2021/12/20 10:17:59;;;;;;;11.98;7.35;;;3.90;99.90;;;;;;5009409;28;20026;-88
2021/12/20 10:20:33;;;;;;;11.98;7.72;;;3.90;99.90;;;;;;5009953;28;20036;-88
2021/12/20 10:23:23;;;;;;;15.48;8.77;;;4.00;99.90;;;;;;5012973;28;20029;-88
2021/12/20 10:26:13;;;;;;;16.83;9.45;;;4.00;99.90;;;;;;5008580;28;20030;-88
2021/12/20 10:28:40;;;;;;;14.77;8.38;;;4.10;99.90;;;;;;5016386;28;20113;-88
2021/12/20 10:31:19;;;;;;;14.68;7.82;;;4.20;99.90;;;;;;5009798;28;20029;-87
2021/12/20 10:33:57;;;;;;;13.70;8.18;;;4.10;99.90;;;;;;5012374;28;20034;-88
2021/12/20 10:36:24;;;;;;;11.48;7.15;;;4.00;99.90;;;;;;5010626;28;20022;-88
2021/12/20 10:38:56;;;;;;;12.23;7.57;;;4.10;99.90;;;;;;4992638;28;20022;-91
2021/12/20 10:41:35;;;;;;;12.32;7.90;;;4.10;99.90;;;;;;4992245;28;20487;-93
2021/12/20 10:44:14;;;;;;;11.80;7.95;;;4.20;99.90;;;;;;4990800;28;20096;-90
2021/12/20 10:46:52;;;;;;;11.77;7.30;;;4.20;99.90;;;;;;4990216;28;20026;-89
2021/12/20 10:49:19;;;;;;;15.13;7.35;;;4.10;99.90;;;;;;5007839;28;20025;-89
2021/12/20 10:51:51;;;;;;;12.18;7.57;;;4.10;99.90;;;;;;4990355;28;20391;-89
2021/12/20 10:54:20;;;;;;;11.07;7.10;;;4.20;99.90;;;;;;5008220;28;20038;-89
2021/12/20 10:56:57;;;;;;;11.35;7.45;;;4.30;99.90;;;;;;5008949;28;20033;-89
2021/12/20 10:59:26;;;;;;;12.38;7.03;;;4.20;99.90;;;;;;5009762;28;20560;-89
2021/12/20 11:05:01;;;;;;;14.02;8.90;;;4.30;99.90;;;;;;5010267;28;20056;-88
2021/12/20 11:09:59;;;;;;;9.63;6.55;;;4.30;99.90;;;;;;5034944;28;20319;-88
2021/12/20 11:12:29;;;;;;;10.15;6.78;;;4.30;99.90;;;;;;5034032;28;20017;-88
2021/12/20 11:15:11;;;;;;;9.82;6.60;;;4.30;99.90;;;;;;5032371;28;20271;-88
2021/12/20 11:17:42;;;;;;;12.52;6.95;;;4.30;99.90;;;;;;5029067;28;20064;-89
2021/12/20 11:20:08;;;;;;;12.15;7.57;;;4.30;99.90;;;;;;5028632;28;20112;-87
2021/12/20 11:22:34;;;;;;;12.95;7.85;;;4.30;99.90;;;;;;5030956;28;20324;-87
2021/12/20 11:25:13;;;;;;;15.23;7.85;;;4.30;99.90;;;;;;5033238;28;20559;-88
2021/12/20 11:27:52;;;;;;;10.43;7.22;;;4.40;99.90;;;;;;5014696;28;20022;-88
2021/12/20 11:30:22;;;;;;;12.48;7.38;;;4.50;99.90;;;;;;5014839;28;20025;-88
2021/12/20 11:32:48;;;;;;;14.68;8.63;;;4.40;99.90;;;;;;4999534;28;20030;-88
2021/12/20 11:35:16;;;;;;;12.05;7.03;;;4.30;99.90;;;;;;5013198;28;20030;-88
2021/12/20 11:37:42;;;;;;;10.52;7.25;;;4.40;99.90;;;;;;5016379;28;20053;-89
2021/12/20 11:40:11;;;;;;;10.23;6.90;;;4.40;99.90;;;;;;5015960;28;20060;-88
2021/12/20 11:42:36;;;;;;;10.88;7.10;;;4.40;99.90;;;;;;5033810;28;20025;-88
2021/12/20 11:45:05;;;;;;;9.95;7.10;;;4.40;99.90;;;;;;5016841;28;20556;-89
2021/12/20 11:47:50;;;;;;;10.10;7.25;;;4.40;99.90;;;;;;5032089;28;20281;-89
2021/12/20 11:50:21;;;;;;;10.15;6.55;;;4.50;99.90;;;;;;5034630;28;20408;-89
2021/12/20 11:52:51;;;;;;;15.00;8.52;;;4.60;99.90;;;;;;5032832;28;20466;-88
2021/12/20 11:55:20;;;;;;;10.73;6.70;;;4.60;99.90;;;;;;5014353;28;20379;-90
2021/12/20 11:58:09;;;;;;;11.95;8.23;;;4.70;99.90;;;;;;5014226;28;20060;-88
2021/12/20 12:00:40;;;;;;;11.77;8.02;;;4.70;99.90;;;;;;5014998;28;20061;-88
2021/12/20 12:03:16;;;;;;;11.38;7.63;;;4.70;99.90;;;;;;5011715;28;20022;-87
2021/12/20 12:06:02;;;;;;;11.98;7.88;;;4.70;99.90;;;;;;5011052;28;20526;-87
2021/12/20 12:08:43;;;;;;;12.68;8.52;;;4.60;99.90;;;;;;5013869;28;20045;-87
2021/12/20 12:11:08;;;;;;;10.77;7.45;;;4.50;99.90;;;;;;5011963;28;20021;-87
2021/12/20 12:13:47;;;;;;;10.43;7.03;;;4.50;99.90;;;;;;5011799;28;20033;-88
2021/12/20 12:16:30;;;;;;;15.55;7.38;;;4.50;99.90;;;;;;5011728;28;20057;-88
2021/12/20 12:18:58;;;;;;;10.38;6.88;;;4.50;99.90;;;;;;4994232;28;20591;-88
2021/12/20 12:21:38;;;;;;;17.58;9.57;;;4.60;99.90;;;;;;5011645;28;20454;-88
2021/12/20 12:24:09;;;;;;;18.13;9.23;;;4.70;99.90;;;;;;4993869;28;20038;-88
2021/12/20 12:26:42;;;;;;;11.18;8.00;;;4.70;99.90;;;;;;4993961;28;20033;-88
2021/12/20 12:29:19;;;;;;;11.95;7.85;;;4.60;99.90;;;;;;5011863;28;20022;-88
2021/12/20 12:31:56;;;;;;;12.68;9.73;;;4.60;99.90;;;;;;5011878;28;20029;-88
2021/12/20 12:34:39;;;;;;;12.63;8.68;;;4.60;99.90;;;;;;5010512;28;20034;-88
2021/12/20 12:37:37;;;;;;;12.52;8.15;;;4.60;99.90;;;;;;5011578;28;20030;-87
2021/12/20 12:40:21;;;;;;;13.65;8.85;;;4.50;99.90;;;;;;5011295;28;20026;-87
2021/12/20 12:42:52;;;;;;;12.95;8.68;;;4.50;99.90;;;;;;5011568;28;20501;-90
2021/12/20 12:45:46;;;;;;;14.05;8.57;;;4.50;99.90;;;;;;4993969;28;20030;-90
2021/12/20 12:48:35;;;;;;;16.17;8.38;;;4.50;99.90;;;;;;5011260;28;20030;-86
2021/12/20 12:51:04;;;;;;;12.15;7.95;;;4.40;99.90;;;;;;5011462;28;20029;-87
2021/12/20 12:53:42;;;;;;;12.80;8.48;;;4.50;99.90;;;;;;5011326;28;20497;-86
2021/12/20 12:56:29;;;;;;;11.75;8.23;;;4.70;99.90;;;;;;5010931;28;20026;-86
2021/12/20 12:59:16;;;;;;;13.00;8.60;;;4.70;99.90;;;;;;5010988;28;20025;-86
2021/12/20 13:01:54;;;;;;;11.13;8.13;;;4.90;99.90;;;;;;5011054;28;20053;-86
2021/12/20 13:04:20;;;;;;;13.38;9.20;;;4.80;99.90;;;;;;5010947;28;20470;-86
2021/12/20 13:06:46;;;;;;;12.02;8.57;;;4.70;99.90;;;;;;4993458;28;20040;-86
2021/12/20 13:09:12;;;;;;;11.27;8.27;;;4.80;99.90;;;;;;4993369;28;20405;-86
2021/12/20 13:11:38;;;;;;;12.38;8.57;;;4.70;99.90;;;;;;5011089;28;20076;-86
2021/12/20 13:14:15;;;;;;;12.82;8.75;;;4.80;99.90;;;;;;5010926;28;20080;-86